Time;durP1;ratioP1;P1;durP2;ratioP2;P2;SDS_P1;SDS_P2;PMS_P1;PMS_P2;Temp;Humidity;BMP_temperature;BMP_pressure;BME280_temperature;BME280_humidity;BME280_pressure;Samples;Min_cycle;Max_cycle;Signal;HPM_P1;HPM_P2
2020/12/02 00:00:00;;;;;;;8.52;6.28;;;3.40;99.90;;;;;;5030744;28;20519;-75
2020/12/02 00:02:34;;;;;;;10.57;6.25;;;3.40;99.90;;;;;;5031480;28;20052;-75
2020/12/02 00:05:10;;;;;;;11.40;6.60;;;3.40;99.90;;;;;;5031440;28;20056;-75
2020/12/02 00:07:37;;;;;;;11.63;7.40;;;3.30;99.90;;;;;;5030962;28;20121;-75
2020/12/02 00:10:05;;;;;;;9.32;6.53;;;3.40;99.90;;;;;;5031354;28;20072;-75
2020/12/02 00:12:30;;;;;;;12.35;6.63;;;3.30;99.90;;;;;;5031329;28;20045;-75
2020/12/02 00:14:56;;;;;;;7.85;5.90;;;3.50;99.90;;;;;;5031063;28;20045;-75
2020/12/02 00:17:22;;;;;;;9.68;5.50;;;3.50;99.90;;;;;;5031470;28;20044;-75
2020/12/02 00:19:50;;;;;;;10.63;6.28;;;3.50;99.90;;;;;;5031866;28;20033;-75
2020/12/02 00:22:20;;;;;;;8.73;5.80;;;3.50;99.90;;;;;;5031760;28;20042;-75
2020/12/02 00:24:46;;;;;;;6.22;4.97;;;3.50;99.90;;;;;;5031116;28;20133;-75
2020/12/02 00:27:29;;;;;;;8.70;5.60;;;3.60;99.90;;;;;;5031129;28;20576;-75
2020/12/02 00:29:55;;;;;;;7.32;4.80;;;3.60;99.90;;;;;;5031011;28;20042;-75
2020/12/02 00:32:29;;;;;;;7.28;4.55;;;3.70;99.90;;;;;;5032374;28;20033;-76
2020/12/02 00:34:56;;;;;;;6.45;4.60;;;3.80;99.90;;;;;;5034416;28;20080;-76
2020/12/02 00:37:23;;;;;;;8.50;4.60;;;3.90;99.90;;;;;;5035008;28;20121;-76
2020/12/02 00:39:49;;;;;;;7.97;5.57;;;3.90;99.90;;;;;;5035373;28;20042;-75
2020/12/02 00:42:15;;;;;;;8.70;4.72;;;3.80;99.90;;;;;;5034822;28;20049;-76
2020/12/02 00:44:41;;;;;;;7.65;5.10;;;3.90;99.90;;;;;;5034114;28;20053;-75
2020/12/02 00:47:11;;;;;;;8.63;4.63;;;3.90;99.90;;;;;;5034503;28;20033;-75
2020/12/02 00:49:38;;;;;;;7.90;5.25;;;4.00;99.90;;;;;;5034399;28;20115;-75
2020/12/02 00:52:07;;;;;;;7.68;4.57;;;4.00;99.90;;;;;;5034591;28;20188;-76
2020/12/02 00:54:35;;;;;;;7.13;4.40;;;4.00;99.90;;;;;;5034329;28;20140;-76
2020/12/02 00:57:01;;;;;;;7.38;4.30;;;4.10;99.90;;;;;;5034398;28;20095;-76
2020/12/02 00:59:31;;;;;;;8.50;4.68;;;4.10;99.90;;;;;;5034236;28;20041;-75
2020/12/02 01:02:16;;;;;;;7.15;4.40;;;4.10;99.90;;;;;;5034295;28;20048;-75
2020/12/02 01:04:45;;;;;;;7.28;4.35;;;4.10;99.90;;;;;;5033983;28;20132;-76
2020/12/02 01:07:12;;;;;;;7.50;4.75;;;4.20;99.90;;;;;;5034403;28;20039;-75
2020/12/02 01:09:39;;;;;;;9.27;4.72;;;4.30;99.90;;;;;;5033984;28;20124;-76
2020/12/02 01:12:06;;;;;;;7.28;4.22;;;4.30;99.90;;;;;;5034077;28;20063;-75
2020/12/02 01:14:32;;;;;;;8.43;4.40;;;4.20;99.90;;;;;;5033763;28;20132;-76
2020/12/02 01:17:00;;;;;;;8.07;4.80;;;4.20;99.90;;;;;;5033507;28;20045;-75
2020/12/02 01:19:29;;;;;;;7.22;4.82;;;4.30;99.90;;;;;;5034126;28;20092;-76
2020/12/02 01:22:14;;;;;;;7.88;4.95;;;4.30;99.90;;;;;;5033584;28;20072;-76
2020/12/02 01:24:54;;;;;;;6.50;4.88;;;4.30;99.90;;;;;;5033941;28;20062;-75
2020/12/02 01:27:44;;;;;;;7.40;4.88;;;4.20;99.90;;;;;;5034658;28;20033;-75
2020/12/02 01:30:13;;;;;;;7.82;4.15;;;4.30;99.90;;;;;;5033906;28;20038;-75
2020/12/02 01:32:42;;;;;;;6.53;4.25;;;4.30;99.90;;;;;;5033978;28;20049;-75
2020/12/02 01:35:14;;;;;;;8.80;4.18;;;4.30;99.90;;;;;;5033336;28;20095;-76
2020/12/02 01:37:41;;;;;;;8.93;4.85;;;4.20;99.90;;;;;;5033972;28;20043;-76
2020/12/02 01:40:13;;;;;;;8.10;4.10;;;4.20;99.90;;;;;;5033874;28;20080;-76
2020/12/02 01:42:42;;;;;;;7.22;4.32;;;4.30;99.90;;;;;;5033840;28;20033;-76
2020/12/02 01:45:25;;;;;;;6.00;3.80;;;4.20;99.90;;;;;;5032989;28;20077;-75
2020/12/02 01:48:02;;;;;;;6.95;3.95;;;4.10;99.90;;;;;;5034204;28;20041;-75
2020/12/02 01:50:40;;;;;;;5.75;4.40;;;4.10;99.90;;;;;;5034028;28;20037;-76
2020/12/02 01:53:48;;;;;;;7.03;4.32;;;4.00;99.90;;;;;;5033738;28;20033;-75
2020/12/02 01:56:26;;;;;;;5.70;4.40;;;3.90;99.90;;;;;;5033498;28;20048;-76
2020/12/02 01:59:26;;;;;;;8.07;4.60;;;4.00;99.90;;;;;;5034059;28;20132;-75
2020/12/02 02:02:01;;;;;;;7.65;4.50;;;3.80;99.90;;;;;;5033962;28;20030;-75
2020/12/02 02:04:42;;;;;;;6.88;4.43;;;3.70;99.90;;;;;;5032854;28;20040;-76
2020/12/02 02:07:16;;;;;;;7.88;4.22;;;3.60;99.90;;;;;;5033450;28;20037;-75
2020/12/02 02:09:45;;;;;;;6.45;4.30;;;3.80;99.90;;;;;;5033210;28;20459;-75
2020/12/02 02:12:23;;;;;;;7.13;4.50;;;3.90;99.90;;;;;;5032820;28;20596;-76
2020/12/02 02:15:12;;;;;;;7.35;4.28;;;3.90;99.90;;;;;;5033135;28;20038;-75
2020/12/02 02:17:38;;;;;;;6.82;4.63;;;3.80;99.90;;;;;;5033095;28;20076;-75
2020/12/02 02:20:06;;;;;;;5.90;4.43;;;3.80;99.90;;;;;;5032798;28;20077;-76
2020/12/02 02:22:32;;;;;;;6.50;4.20;;;3.70;99.90;;;;;;5033199;28;20041;-74
2020/12/02 02:24:58;;;;;;;5.22;4.00;;;3.70;99.90;;;;;;5033347;28;20072;-76
2020/12/02 02:27:27;;;;;;;6.78;4.10;;;3.60;99.90;;;;;;5033196;28;20056;-75
2020/12/02 02:29:53;;;;;;;6.93;4.07;;;3.80;99.90;;;;;;5032446;28;20033;-75
2020/12/02 02:32:23;;;;;;;5.80;4.18;;;3.70;99.90;;;;;;5032881;28;20099;-75
2020/12/02 02:34:53;;;;;;;6.32;4.43;;;3.70;99.90;;;;;;5032946;28;20052;-75
2020/12/02 02:37:21;;;;;;;7.65;4.07;;;3.80;99.90;;;;;;5032811;28;20095;-75
2020/12/02 02:39:47;;;;;;;8.18;4.53;;;3.90;99.90;;;;;;5032234;28;20095;-75
2020/12/02 02:42:34;;;;;;;6.53;4.45;;;3.80;99.90;;;;;;5032717;28;20037;-75
2020/12/02 02:45:08;;;;;;;6.60;4.20;;;3.90;99.90;;;;;;5032587;28;20480;-75
2020/12/02 02:47:34;;;;;;;6.90;4.00;;;3.90;99.90;;;;;;5032730;28;20045;-75
2020/12/02 02:50:00;;;;;;;5.25;3.70;;;4.00;99.90;;;;;;5032502;28;20048;-75
2020/12/02 02:52:26;;;;;;;6.05;4.90;;;3.90;99.90;;;;;;5032782;28;20041;-75
2020/12/02 02:54:53;;;;;;;6.97;4.45;;;3.90;99.90;;;;;;5031980;28;20044;-75
2020/12/02 02:57:19;;;;;;;10.20;4.85;;;3.90;99.90;;;;;;5032378;28;20553;-76
2020/12/02 02:59:45;;;;;;;7.38;4.65;;;3.90;99.90;;;;;;5032463;28;20117;-76
2020/12/02 03:02:13;;;;;;;6.88;4.20;;;3.90;99.90;;;;;;5032562;28;20572;-75
2020/12/02 03:04:39;;;;;;;7.03;3.95;;;3.90;99.90;;;;;;5032191;28;20124;-75
2020/12/02 03:07:12;;;;;;;8.07;4.32;;;3.80;99.90;;;;;;5031963;28;20041;-75
2020/12/02 03:09:38;;;;;;;8.63;5.00;;;3.70;99.90;;;;;;5032642;28;20095;-76
2020/12/02 03:12:04;;;;;;;7.53;4.50;;;3.80;99.90;;;;;;5032512;28;20068;-76
2020/12/02 03:14:30;;;;;;;8.77;4.28;;;3.90;99.90;;;;;;5032608;28;20558;-75
2020/12/02 03:16:58;;;;;;;7.50;4.40;;;3.90;99.90;;;;;;5032339;28;20088;-76
2020/12/02 03:19:33;;;;;;;5.93;4.15;;;3.90;99.90;;;;;;5032066;28;20033;-75
2020/12/02 03:22:06;;;;;;;6.05;3.22;;;3.70;99.90;;;;;;5032650;28;20045;-75
2020/12/02 03:24:32;;;;;;;4.28;3.38;;;3.80;99.90;;;;;;5031899;28;20037;-76
2020/12/02 03:26:58;;;;;;;6.20;4.07;;;3.70;99.90;;;;;;5032085;28;20098;-76
2020/12/02 03:29:24;;;;;;;6.03;4.13;;;3.70;99.90;;;;;;5031665;28;20053;-75
2020/12/02 03:31:50;;;;;;;6.93;3.53;;;3.70;99.90;;;;;;5031763;28;20378;-75
2020/12/02 03:34:18;;;;;;;4.85;3.40;;;3.80;99.90;;;;;;5031616;28;20049;-75
2020/12/02 03:36:45;;;;;;;5.65;3.45;;;4.00;99.90;;;;;;5031955;28;20041;-75
2020/12/02 03:39:13;;;;;;;7.20;4.10;;;4.00;99.90;;;;;;5031215;28;20124;-75
2020/12/02 03:41:40;;;;;;;4.57;3.25;;;3.90;99.90;;;;;;5031320;28;20559;-76
2020/12/02 03:44:07;;;;;;;4.95;3.80;;;3.90;99.90;;;;;;5031475;28;20029;-75
2020/12/02 03:46:33;;;;;;;6.20;3.30;;;3.80;99.90;;;;;;5031571;28;20077;-75
2020/12/02 03:48:59;;;;;;;5.00;3.35;;;3.90;99.90;;;;;;5031484;28;20049;-75
2020/12/02 03:51:26;;;;;;;3.92;2.80;;;3.70;99.90;;;;;;5031596;28;20112;-75
2020/12/02 03:53:52;;;;;;;5.43;3.15;;;3.80;99.90;;;;;;5031747;28;20045;-75
2020/12/02 03:56:19;;;;;;;5.63;3.65;;;3.80;99.90;;;;;;5031679;28;20371;-75
2020/12/02 03:58:46;;;;;;;4.70;2.90;;;3.70;99.90;;;;;;5030807;28;20124;-75
2020/12/02 04:01:13;;;;;;;4.93;2.80;;;3.70;99.90;;;;;;5031491;28;20045;-76
2020/12/02 04:03:38;;;;;;;3.70;3.03;;;3.70;99.90;;;;;;5031758;28;20045;-75
2020/12/02 04:06:09;;;;;;;5.15;3.38;;;3.60;99.90;;;;;;5031578;28;20044;-75
2020/12/02 04:08:40;;;;;;;6.82;2.95;;;3.60;99.90;;;;;;5034353;28;20041;-75
2020/12/02 04:11:07;;;;;;;4.25;2.90;;;3.80;99.90;;;;;;5035281;28;20042;-75
2020/12/02 04:13:34;;;;;;;6.63;3.25;;;3.70;99.90;;;;;;5035685;28;20075;-75
2020/12/02 04:16:00;;;;;;;5.70;2.67;;;3.70;99.90;;;;;;5035423;28;20048;-75
2020/12/02 04:18:26;;;;;;;4.20;2.50;;;3.70;99.90;;;;;;5034803;28;20041;-75
2020/12/02 04:20:52;;;;;;;4.55;2.50;;;3.60;99.90;;;;;;5034891;28;20447;-75
2020/12/02 04:23:18;;;;;;;5.25;2.80;;;3.60;99.90;;;;;;5035145;28;20041;-75
2020/12/02 04:25:44;;;;;;;3.72;2.30;;;3.70;99.90;;;;;;5034557;28;20049;-76
2020/12/02 04:28:10;;;;;;;4.70;2.50;;;3.80;99.90;;;;;;5035199;28;20041;-76
2020/12/02 04:30:36;;;;;;;2.70;2.22;;;3.70;99.90;;;;;;5035092;28;20053;-75
2020/12/02 04:33:02;;;;;;;2.60;2.20;;;3.60;99.90;;;;;;5035697;28;20400;-75
2020/12/02 04:35:28;;;;;;;3.67;2.22;;;3.50;99.90;;;;;;5034792;28;20049;-76
2020/12/02 04:37:53;;;;;;;3.20;1.88;;;3.60;99.90;;;;;;5035179;28;20067;-75
2020/12/02 04:40:32;;;;;;;2.83;2.33;;;3.60;99.90;;;;;;5035058;28;20110;-75
2020/12/02 04:43:39;;;;;;;3.05;1.90;;;3.60;99.90;;;;;;5034911;28;20040;-76
2020/12/02 04:46:32;;;;;;;4.95;2.03;;;3.60;99.90;;;;;;5030005;28;20128;-76
2020/12/02 04:49:18;;;;;;;3.05;2.25;;;3.80;99.90;;;;;;5033372;28;20037;-76
2020/12/02 04:51:44;;;;;;;4.22;1.83;;;3.80;99.90;;;;;;5035098;28;20038;-75
2020/12/02 04:54:11;;;;;;;4.20;2.22;;;3.80;99.90;;;;;;5034760;28;20111;-75
2020/12/02 04:56:42;;;;;;;1.98;1.70;;;3.80;99.90;;;;;;5034384;28;20480;-76
2020/12/02 04:59:09;;;;;;;2.35;1.63;;;3.70;99.90;;;;;;5034533;28;20511;-76
2020/12/02 05:01:55;;;;;;;3.33;2.15;;;3.70;99.90;;;;;;5035042;28;20124;-75
2020/12/02 05:04:27;;;;;;;3.88;2.10;;;3.60;99.90;;;;;;5034782;28;20064;-75
2020/12/02 05:07:05;;;;;;;2.33;1.70;;;3.50;99.90;;;;;;5034048;28;20057;-76
2020/12/02 05:09:36;;;;;;;2.30;1.88;;;3.40;99.90;;;;;;5034568;28;20038;-76
2020/12/02 05:12:06;;;;;;;2.33;1.70;;;3.30;99.90;;;;;;5034475;28;20053;-75
2020/12/02 05:14:39;;;;;;;2.83;1.77;;;3.50;99.90;;;;;;5034389;28;20045;-75
2020/12/02 05:17:17;;;;;;;2.40;1.60;;;3.40;99.90;;;;;;5034476;28;20052;-75
2020/12/02 05:19:45;;;;;;;1.95;1.58;;;3.60;99.90;;;;;;5033789;28;20503;-76
2020/12/02 05:22:16;;;;;;;1.77;1.38;;;3.60;99.90;;;;;;5034409;28;20045;-75
2020/12/02 05:24:49;;;;;;;1.92;1.45;;;3.60;99.90;;;;;;5033676;28;20053;-76
2020/12/02 05:27:18;;;;;;;1.33;1.13;;;3.40;99.90;;;;;;5033937;28;20120;-75
2020/12/02 05:30:22;;;;;;;1.13;1.02;;;3.50;99.90;;;;;;5033641;28;20033;-75
2020/12/02 05:33:13;;;;;;;1.23;0.95;;;3.60;99.90;;;;;;5033660;28;20116;-76
2020/12/02 05:35:46;;;;;;;1.27;0.82;;;3.60;99.90;;;;;;5034009;28;20033;-75
2020/12/02 05:38:34;;;;;;;1.30;1.13;;;3.80;99.90;;;;;;5033804;28;20045;-75
2020/12/02 05:41:03;;;;;;;0.80;0.80;;;3.70;99.90;;;;;;5033319;28;20423;-75
2020/12/02 05:43:29;;;;;;;1.10;0.90;;;3.70;99.90;;;;;;5033484;28;20045;-76
2020/12/02 05:45:57;;;;;;;1.70;0.88;;;3.60;99.90;;;;;;5032993;28;20562;-76
2020/12/02 05:48:27;;;;;;;1.00;0.90;;;3.50;99.90;;;;;;5033494;28;20041;-75
2020/12/02 05:50:55;;;;;;;1.17;0.90;;;3.50;99.90;;;;;;5033700;28;20102;-75
2020/12/02 05:53:33;;;;;;;0.80;0.80;;;3.60;99.90;;;;;;5032961;28;20037;-75
2020/12/02 05:56:00;;;;;;;0.70;0.65;;;3.50;99.90;;;;;;5033272;28;20049;-75
2020/12/02 05:58:29;;;;;;;1.77;0.90;;;3.60;99.90;;;;;;5032574;28;20465;-76
2020/12/02 06:00:55;;;;;;;1.13;0.98;;;3.60;99.90;;;;;;5032748;28;20042;-75
2020/12/02 06:03:32;;;;;;;1.02;0.80;;;3.50;99.90;;;;;;5033204;28;20045;-76
2020/12/02 06:06:00;;;;;;;2.08;0.93;;;3.40;99.90;;;;;;5032466;28;20049;-76
2020/12/02 06:08:44;;;;;;;2.40;1.13;;;3.50;99.90;;;;;;5033105;28;20104;-75
2020/12/02 06:11:15;;;;;;;0.77;0.50;;;3.60;99.90;;;;;;5032960;28;20045;-76
2020/12/02 06:13:43;;;;;;;1.38;0.70;;;3.60;99.90;;;;;;5032835;28;20075;-76
2020/12/02 06:16:17;;;;;;;0.47;0.47;;;3.80;99.90;;;;;;5033084;28;20037;-76
2020/12/02 06:18:43;;;;;;;0.50;0.50;;;3.80;99.90;;;;;;5030717;28;20037;-76
2020/12/02 06:21:38;;;;;;;1.10;0.93;;;3.70;99.90;;;;;;5031747;28;20068;-75
2020/12/02 06:24:04;;;;;;;1.20;1.10;;;3.70;99.90;;;;;;5031260;28;20120;-75
2020/12/02 06:26:44;;;;;;;0.85;0.70;;;3.50;99.90;;;;;;5025314;28;20141;-75
2020/12/02 06:29:29;;;;;;;1.20;0.70;;;3.70;99.90;;;;;;5028601;28;20092;-75
2020/12/02 06:32:21;;;;;;;0.57;0.45;;;3.60;99.90;;;;;;5032527;28;20119;-74
2020/12/02 06:35:06;;;;;;;0.45;0.40;;;3.50;99.90;;;;;;5026266;28;20114;-75
2020/12/02 06:37:33;;;;;;;0.50;0.40;;;3.60;99.90;;;;;;5029551;28;20108;-74
2020/12/02 06:40:00;;;;;;;0.90;0.57;;;3.70;99.90;;;;;;5030745;28;20069;-76
2020/12/02 06:42:31;;;;;;;0.38;0.38;;;3.80;99.90;;;;;;5031614;28;20045;-75
2020/12/02 06:45:02;;;;;;;;;;;3.70;99.90;;;;;;5031890;28;20049;-75
2020/12/02 06:47:30;;;;;;;0.30;0.30;;;3.70;99.90;;;;;;5032796;28;19916;-75
2020/12/02 06:50:02;;;;;;;0.40;0.40;;;3.60;99.90;;;;;;5031727;28;20124;-75
2020/12/02 06:52:36;;;;;;;0.85;0.40;;;3.60;99.90;;;;;;5031625;28;20116;-74
2020/12/02 06:55:27;;;;;;;0.30;0.30;;;3.70;99.90;;;;;;5022266;28;20095;-75
2020/12/02 06:57:59;;;;;;;0.45;0.40;;;3.70;99.90;;;;;;5031076;28;20242;-75
2020/12/02 07:00:39;;;;;;;0.30;0.30;;;3.70;99.90;;;;;;5031015;28;20068;-74
2020/12/02 07:03:18;;;;;;;0.32;0.32;;;3.70;99.90;;;;;;5030985;28;20073;-75
2020/12/02 07:05:44;;;;;;;0.43;0.43;;;3.60;99.90;;;;;;5019624;28;20045;-74
2020/12/02 07:08:37;;;;;;;0.60;0.60;;;3.50;99.90;;;;;;5024735;28;20091;-75
2020/12/02 07:11:05;;;;;;;0.30;0.30;;;3.60;99.90;;;;;;5018334;28;20163;-75
2020/12/02 07:13:38;;;;;;;0.70;0.65;;;3.70;99.90;;;;;;5031589;28;20041;-74
2020/12/02 07:16:18;;;;;;;0.50;0.40;;;3.70;99.90;;;;;;5030662;28;20740;-75
2020/12/02 07:18:53;;;;;;;0.38;0.38;;;3.80;99.90;;;;;;5031918;28;20068;-74
2020/12/02 07:21:25;;;;;;;0.80;0.70;;;3.80;99.90;;;;;;5030942;28;20037;-75
2020/12/02 07:23:53;;;;;;;0.90;0.80;;;3.70;99.90;;;;;;5030012;28;20099;-75
2020/12/02 07:26:20;;;;;;;0.50;0.50;;;3.60;99.90;;;;;;5027316;28;20045;-75
2020/12/02 07:28:46;;;;;;;12.15;6.43;;;3.70;99.90;;;;;;5019040;28;20050;-76
2020/12/02 07:31:22;;;;;;;0.65;0.50;;;3.70;99.90;;;;;;5026422;28;20061;-73
2020/12/02 07:34:15;;;;;;;3.60;1.40;;;3.60;99.90;;;;;;5025930;28;20041;-75
2020/12/02 07:36:42;;;;;;;0.38;0.38;;;3.50;99.90;;;;;;5023293;28;20076;-75
2020/12/02 07:39:19;;;;;;;0.30;0.30;;;3.50;99.90;;;;;;5030838;28;20496;-74
2020/12/02 07:41:48;;;;;;;0.30;0.30;;;3.50;99.90;;;;;;5031361;28;20073;-75
2020/12/02 07:44:16;;;;;;;0.30;0.30;;;3.60;99.90;;;;;;5022962;28;20038;-75
2020/12/02 07:46:42;;;;;;;2.90;1.10;;;3.50;99.90;;;;;;5034318;28;20130;-75
2020/12/02 07:49:09;;;;;;;0.70;0.70;;;3.40;99.90;;;;;;5033897;28;20048;-75
2020/12/02 07:51:42;;;;;;;2.92;1.75;;;3.30;99.90;;;;;;5029456;28;20037;-75
2020/12/02 07:54:26;;;;;;;0.55;0.40;;;3.30;99.90;;;;;;5032773;28;20045;-75
2020/12/02 07:56:53;;;;;;;0.75;0.50;;;3.40;99.90;;;;;;5034245;28;20103;-73
2020/12/02 07:59:23;;;;;;;2.17;1.30;;;3.60;99.90;;;;;;5033896;28;20037;-73
2020/12/02 08:01:49;;;;;;;0.57;0.45;;;3.60;99.90;;;;;;5034010;28;20068;-72
2020/12/02 08:04:20;;;;;;;0.68;0.68;;;3.50;99.90;;;;;;5034356;28;20038;-72
2020/12/02 08:07:02;;;;;;;0.40;0.40;;;3.80;99.90;;;;;;5033203;28;20057;-73
2020/12/02 08:09:33;;;;;;;0.90;0.70;;;3.80;99.90;;;;;;5020559;28;20093;-72
2020/12/02 08:12:03;;;;;;;0.40;0.40;;;3.90;99.90;;;;;;5021127;28;20132;-73
2020/12/02 08:14:46;;;;;;;0.40;0.40;;;3.90;99.90;;;;;;5029375;28;20049;-73
2020/12/02 08:17:14;;;;;;;0.30;0.30;;;4.00;99.90;;;;;;5026374;28;20049;-73
2020/12/02 08:19:43;;;;;;;0.40;0.40;;;4.00;99.90;;;;;;5029257;28;20037;-71
2020/12/02 08:22:36;;;;;;;0.47;0.47;;;4.10;99.90;;;;;;5027369;28;20041;-72
2020/12/02 08:25:37;;;;;;;1.15;0.50;;;4.10;99.90;;;;;;5025085;28;20065;-72
2020/12/02 08:28:10;;;;;;;0.60;0.45;;;4.10;99.90;;;;;;5026058;28;20553;-73
2020/12/02 08:30:36;;;;;;;0.65;0.65;;;4.20;99.90;;;;;;5026614;28;20150;-74
2020/12/02 08:33:14;;;;;;;0.52;0.43;;;4.20;99.90;;;;;;5025874;28;20587;-74
2020/12/02 08:35:45;;;;;;;0.40;0.40;;;4.30;99.90;;;;;;5025590;28;20375;-74
2020/12/02 08:38:29;;;;;;;0.55;0.50;;;4.30;99.90;;;;;;5025026;28;20107;-74
2020/12/02 08:40:58;;;;;;;0.40;0.40;;;4.30;99.90;;;;;;5011185;28;20103;-73
2020/12/02 08:43:31;;;;;;;0.50;0.50;;;4.30;99.90;;;;;;5021568;28;20511;-73
2020/12/02 08:46:07;;;;;;;1.65;1.55;;;4.30;99.90;;;;;;5028220;28;20077;-72
2020/12/02 08:48:34;;;;;;;0.90;0.90;;;4.30;99.90;;;;;;5026662;28;20041;-72
2020/12/02 08:50:59;;;;;;;0.65;0.60;;;4.30;99.90;;;;;;5026826;28;20040;-72
2020/12/02 08:53:28;;;;;;;1.23;1.08;;;4.30;99.90;;;;;;5025199;28;20124;-72
2020/12/02 08:55:56;;;;;;;1.25;1.10;;;4.20;99.90;;;;;;5025246;28;20033;-72
2020/12/02 08:58:22;;;;;;;1.45;1.10;;;4.20;99.90;;;;;;5021976;28;20045;-72
2020/12/02 09:00:48;;;;;;;1.70;1.40;;;4.30;99.90;;;;;;5030773;28;20529;-72
2020/12/02 09:03:15;;;;;;;0.85;0.70;;;4.30;99.90;;;;;;5025135;28;20083;-71
2020/12/02 09:05:41;;;;;;;1.70;1.15;;;4.30;99.90;;;;;;5031322;28;20064;-73
2020/12/02 09:08:07;;;;;;;1.45;1.35;;;4.40;99.90;;;;;;5031555;28;20049;-73
2020/12/02 09:10:33;;;;;;;0.90;0.85;;;4.30;99.90;;;;;;5027347;28;20531;-73
2020/12/02 09:12:59;;;;;;;0.68;0.68;;;4.30;99.90;;;;;;5031366;28;20041;-73
2020/12/02 09:15:27;;;;;;;0.52;0.52;;;4.30;99.90;;;;;;5031928;28;20062;-73
2020/12/02 09:17:54;;;;;;;1.23;0.75;;;4.30;99.90;;;;;;5031781;28;20419;-74
2020/12/02 09:20:21;;;;;;;2.53;1.85;;;4.30;99.90;;;;;;5032751;28;20044;-72
2020/12/02 09:22:47;;;;;;;1.90;0.60;;;4.30;99.90;;;;;;5031541;28;20415;-72
2020/12/02 09:25:13;;;;;;;3.47;2.28;;;4.30;99.90;;;;;;5030928;28;20053;-71
2020/12/02 09:27:39;;;;;;;1.88;1.40;;;4.30;99.90;;;;;;5032098;28;20124;-72
2020/12/02 09:30:07;;;;;;;1.30;1.00;;;4.30;99.90;;;;;;5031785;28;20116;-71
2020/12/02 09:32:33;;;;;;;1.10;0.70;;;4.50;99.90;;;;;;5032405;28;20518;-72
2020/12/02 09:34:59;;;;;;;1.42;1.20;;;4.40;99.90;;;;;;5031938;28;20491;-71
2020/12/02 09:37:25;;;;;;;2.65;1.90;;;4.60;99.90;;;;;;5032099;28;20076;-72
2020/12/02 09:39:53;;;;;;;1.42;1.17;;;4.60;99.90;;;;;;5031926;28;20070;-72
2020/12/02 09:42:41;;;;;;;1.00;0.90;;;4.60;99.90;;;;;;5024398;28;20091;-71
2020/12/02 09:45:14;;;;;;;5.13;3.15;;;4.80;99.90;;;;;;5030535;28;20171;-71
2020/12/02 09:47:41;;;;;;;3.15;2.38;;;4.60;99.90;;;;;;5031745;28;20045;-72
2020/12/02 09:50:08;;;;;;;1.13;1.02;;;4.70;99.90;;;;;;5029681;28;20069;-72
2020/12/02 09:52:44;;;;;;;1.60;1.15;;;4.40;99.90;;;;;;5030776;28;20488;-71
2020/12/02 09:55:23;;;;;;;1.92;1.60;;;4.10;99.90;;;;;;5031210;28;20373;-71
2020/12/02 09:57:50;;;;;;;1.35;0.85;;;4.00;99.90;;;;;;5030973;28;20046;-76
2020/12/02 10:00:18;;;;;;;1.50;1.27;;;4.00;99.90;;;;;;5030736;28;20046;-73
2020/12/02 10:03:15;;;;;;;1.35;0.88;;;4.00;99.90;;;;;;5030103;28;20554;-74
2020/12/02 10:06:09;;;;;;;0.70;0.60;;;3.90;99.90;;;;;;5029531;28;20076;-74
2020/12/02 10:09:06;;;;;;;0.80;0.80;;;3.90;99.90;;;;;;5026727;28;20052;-74
2020/12/02 10:11:51;;;;;;;1.95;1.25;;;3.90;99.90;;;;;;5023665;28;20045;-73
2020/12/02 10:14:26;;;;;;;2.28;1.00;;;3.90;99.90;;;;;;5028309;28;20034;-74
2020/12/02 10:17:26;;;;;;;1.88;0.98;;;4.00;99.90;;;;;;5030341;28;20045;-73
2020/12/02 10:20:03;;;;;;;2.63;1.42;;;4.00;99.90;;;;;;5028215;28;20048;-73
2020/12/02 10:22:57;;;;;;;1.75;1.17;;;4.00;99.90;;;;;;5028573;28;20095;-73
2020/12/02 10:26:07;;;;;;;1.10;1.00;;;3.90;99.90;;;;;;5028564;28;20053;-73
2020/12/02 10:28:51;;;;;;;1.50;1.35;;;3.80;99.90;;;;;;5013989;28;20527;-73
2020/12/02 10:31:25;;;;;;;3.33;1.70;;;3.80;99.90;;;;;;5029499;28;20052;-73
2020/12/02 10:34:19;;;;;;;2.67;1.67;;;3.80;99.90;;;;;;5028740;28;20072;-73
2020/12/02 10:36:55;;;;;;;2.83;1.80;;;3.90;99.90;;;;;;5029927;28;20414;-72
2020/12/02 10:39:27;;;;;;;2.63;2.08;;;3.80;99.90;;;;;;5031009;28;20056;-73
2020/12/02 10:42:15;;;;;;;3.83;2.85;;;3.80;99.90;;;;;;5029358;28;20393;-73
2020/12/02 10:44:53;;;;;;;3.65;2.30;;;3.70;99.90;;;;;;5029498;28;20119;-73
2020/12/02 10:47:42;;;;;;;3.65;2.22;;;3.70;99.90;;;;;;5015566;28;20124;-72
2020/12/02 10:50:08;;;;;;;3.63;2.10;;;3.80;99.90;;;;;;5025344;28;20084;-72
2020/12/02 10:52:34;;;;;;;4.38;2.20;;;3.80;99.90;;;;;;5030910;28;20037;-73
2020/12/02 10:55:01;;;;;;;4.03;2.70;;;4.00;99.90;;;;;;5026711;28;20647;-72
2020/12/02 10:57:27;;;;;;;5.03;2.63;;;3.90;99.90;;;;;;5020008;28;20449;-72
2020/12/02 10:59:57;;;;;;;4.40;2.40;;;3.90;99.90;;;;;;5023647;28;20128;-72
2020/12/02 11:02:27;;;;;;;3.30;2.50;;;4.00;99.90;;;;;;5032152;28;20064;-72
2020/12/02 11:04:54;;;;;;;2.13;1.80;;;4.10;99.90;;;;;;5022004;28;20586;-73
2020/12/02 11:07:43;;;;;;;5.85;2.45;;;4.10;99.90;;;;;;5018123;28;20264;-72
2020/12/02 11:10:14;;;;;;;3.83;2.35;;;4.10;99.90;;;;;;5026489;28;20053;-74
2020/12/02 11:12:52;;;;;;;4.75;2.70;;;4.20;99.90;;;;;;5028651;28;20536;-75
2020/12/02 11:15:27;;;;;;;6.88;3.50;;;4.10;99.90;;;;;;5013135;28;20042;-74
2020/12/02 11:18:21;;;;;;;3.75;2.63;;;4.00;99.90;;;;;;5013192;28;20492;-76
2020/12/02 11:21:10;;;;;;;3.83;2.50;;;4.00;99.90;;;;;;5029854;28;20534;-73
2020/12/02 11:23:59;;;;;;;3.35;2.40;;;4.00;99.90;;;;;;5033171;28;20044;-72
2020/12/02 11:26:31;;;;;;;2.97;2.08;;;3.90;99.90;;;;;;5032284;28;20446;-72
2020/12/02 11:29:00;;;;;;;7.80;3.72;;;3.90;99.90;;;;;;5026666;28;20061;-72
2020/12/02 11:31:47;;;;;;;2.67;2.28;;;3.90;99.90;;;;;;5023383;28;20044;-73
2020/12/02 11:34:31;;;;;;;5.25;2.97;;;3.90;99.90;;;;;;5032138;28;20467;-73
2020/12/02 11:37:34;;;;;;;4.05;2.80;;;3.90;99.90;;;;;;5032552;28;20037;-74
2020/12/02 11:40:17;;;;;;;7.63;3.78;;;3.90;99.90;;;;;;5029927;28;20454;-74
2020/12/02 11:42:54;;;;;;;4.88;3.17;;;3.90;99.90;;;;;;5018866;28;20037;-74
2020/12/02 11:45:28;;;;;;;5.20;3.13;;;3.90;99.90;;;;;;5031885;28;20053;-74
2020/12/02 11:48:11;;;;;;;4.30;2.90;;;4.00;99.90;;;;;;5031121;28;20041;-73
2020/12/02 11:50:52;;;;;;;5.78;3.55;;;3.90;99.90;;;;;;5030150;28;20041;-73
2020/12/02 11:53:36;;;;;;;;;;;3.80;99.90;;;;;;5031093;28;20071;-73
2020/12/02 11:56:03;;;;;;;4.88;2.80;;;3.90;99.90;;;;;;5030102;28;19996;-74
2020/12/02 11:58:29;;;;;;;6.78;2.92;;;3.90;99.90;;;;;;5030867;28;20041;-73
2020/12/02 12:01:19;;;;;;;5.70;2.83;;;3.90;99.90;;;;;;5029484;28;20099;-74
2020/12/02 12:04:07;;;;;;;7.00;4.45;;;3.90;99.90;;;;;;5025586;28;20033;-74
2020/12/02 12:06:33;;;;;;;5.10;3.03;;;3.90;99.90;;;;;;5029831;28;20144;-74
2020/12/02 12:09:28;;;;;;;4.70;3.60;;;3.90;99.90;;;;;;5029290;28;20127;-71
2020/12/02 12:12:03;;;;;;;6.32;3.90;;;3.90;99.90;;;;;;5027975;28;20124;-73
2020/12/02 12:14:43;;;;;;;7.93;3.67;;;3.90;99.90;;;;;;5026296;28;20033;-74
2020/12/02 12:17:37;;;;;;;8.18;4.00;;;3.90;99.90;;;;;;5016468;28;20053;-74
2020/12/02 12:20:16;;;;;;;6.70;3.67;;;3.90;99.90;;;;;;5031443;28;20046;-74
2020/12/02 12:22:49;;;;;;;8.23;4.80;;;3.90;99.90;;;;;;5031072;28;20037;-74
2020/12/02 12:25:23;;;;;;;6.25;4.05;;;3.90;99.90;;;;;;5046300;28;20064;-73
2020/12/02 12:27:56;;;;;;;8.48;5.03;;;4.00;99.90;;;;;;5023514;28;20049;-73
2020/12/02 12:30:22;;;;;;;7.40;5.45;;;4.00;99.90;;;;;;5032177;28;20056;-74
2020/12/02 12:33:06;;;;;;;7.03;4.53;;;4.00;99.90;;;;;;5029782;28;20050;-73
2020/12/02 12:35:41;;;;;;;4.80;3.78;;;4.00;99.90;;;;;;5035075;28;20045;-74
2020/12/02 12:38:14;;;;;;;5.97;3.80;;;4.00;99.90;;;;;;5035294;28;20033;-74
2020/12/02 12:40:45;;;;;;;6.28;3.90;;;4.00;99.90;;;;;;5035380;28;20048;-73
2020/12/02 12:43:14;;;;;;;6.85;4.72;;;4.00;99.90;;;;;;5030935;28;20090;-73
2020/12/02 12:45:47;;;;;;;5.00;3.58;;;4.20;99.90;;;;;;5035163;28;20071;-73
2020/12/02 12:48:16;;;;;;;5.25;3.08;;;4.20;99.90;;;;;;5019817;28;20807;-73
2020/12/02 12:50:47;;;;;;;6.13;3.50;;;4.30;99.90;;;;;;5015636;28;20516;-73
2020/12/02 12:53:14;;;;;;;3.95;2.90;;;4.20;99.90;;;;;;5020909;28;20120;-73
2020/12/02 12:55:41;;;;;;;5.85;3.47;;;4.30;99.90;;;;;;5033132;28;20076;-73
2020/12/02 12:58:17;;;;;;;4.13;3.10;;;4.40;99.90;;;;;;5031924;28;20041;-73
2020/12/02 13:00:49;;;;;;;7.03;3.40;;;4.50;99.90;;;;;;5035117;28;20049;-73
2020/12/02 13:03:21;;;;;;;3.40;2.40;;;4.40;99.90;;;;;;5029346;28;20041;-74
2020/12/02 13:06:05;;;;;;;4.55;3.33;;;4.50;99.90;;;;;;5026156;28;20085;-72
2020/12/02 13:09:07;;;;;;;168.68;104.65;;;4.50;99.90;;;;;;5033248;28;20037;-73
2020/12/02 13:12:04;;;;;;;6.05;3.67;;;4.50;99.90;;;;;;5025969;28;20116;-76
2020/12/02 13:15:13;;;;;;;7.63;4.43;;;4.60;99.90;;;;;;5032656;28;20030;-77
2020/12/02 13:17:58;;;;;;;3.30;2.38;;;4.50;99.90;;;;;;5003977;28;20169;-78
2020/12/02 13:20:32;;;;;;;76.85;68.78;;;4.50;99.90;;;;;;5031170;28;20503;-77
2020/12/02 13:23:15;;;;;;;4.80;4.30;;;4.50;99.90;;;;;;5038930;28;20529;-76
2020/12/02 13:25:53;;;;;;;3.70;2.05;;;4.60;99.90;;;;;;5031047;28;20064;-76
2020/12/02 13:28:27;;;;;;;4.03;1.92;;;4.60;99.90;;;;;;5018126;28;20042;-76
2020/12/02 13:31:24;;;;;;;5.00;3.05;;;4.60;99.90;;;;;;5014170;28;20068;-75